createdAt,value
2018-12-18T00:00:42.765Z,92.70
2018-12-18T00:03:13.390Z,92.50
2018-12-18T00:05:44.251Z,92.30
2018-12-18T00:08:14.703Z,92.00
2018-12-18T00:10:46.699Z,91.90
2018-12-18T00:13:18.235Z,91.80
2018-12-18T00:15:51.326Z,91.50
2018-12-18T00:18:23.339Z,91.50
2018-12-18T00:20:53.879Z,91.40
2018-12-18T00:23:24.652Z,91.50
2018-12-18T00:25:55.496Z,91.20
2018-12-18T00:28:26.168Z,91.20
2018-12-18T00:30:56.717Z,90.80
2018-12-18T00:33:27.143Z,90.80
2018-12-18T00:35:57.929Z,90.50
2018-12-18T00:38:28.316Z,90.20
2018-12-18T00:40:58.664Z,89.70
2018-12-18T00:43:29.034Z,89.20
2018-12-18T00:45:59.274Z,88.70
2018-12-18T00:48:29.490Z,88.60
2018-12-18T00:50:59.767Z,88.50
2018-12-18T00:53:29.928Z,87.70
2018-12-18T00:56:00.189Z,88.60
2018-12-18T00:58:30.400Z,89.80
2018-12-18T01:01:00.790Z,89.40
2018-12-18T01:03:31.121Z,89.70
2018-12-18T01:06:01.493Z,90.00
2018-12-18T01:08:31.702Z,90.10
2018-12-18T01:11:03.095Z,90.20
2018-12-18T01:13:33.282Z,90.30
2018-12-18T01:16:10.398Z,90.30
2018-12-18T01:18:40.596Z,90.00
2018-12-18T01:21:10.934Z,90.20
2018-12-18T01:23:41.378Z,90.20
2018-12-18T01:26:11.633Z,90.60
2018-12-18T01:28:41.831Z,90.60
2018-12-18T01:31:12.527Z,90.30
2018-12-18T01:33:42.939Z,90.20
2018-12-18T01:36:13.391Z,90.10
2018-12-18T01:38:43.737Z,90.10
2018-12-18T01:41:14.163Z,90.10
2018-12-18T01:43:44.558Z,90.10
2018-12-18T01:46:15.222Z,90.50
2018-12-18T01:48:45.676Z,90.00
2018-12-18T01:51:16.987Z,89.60
2018-12-18T01:53:47.367Z,89.40
2018-12-18T01:56:18.161Z,89.50
2018-12-18T01:58:48.557Z,89.70
2018-12-18T02:01:18.942Z,89.60
2018-12-18T02:03:49.461Z,89.30
2018-12-18T02:06:19.799Z,89.70
2018-12-18T02:08:50.285Z,90.00
2018-12-18T02:11:20.650Z,89.60
2018-12-18T02:13:50.914Z,90.00
2018-12-18T02:16:21.282Z,90.00
2018-12-18T02:18:51.549Z,90.00
2018-12-18T02:21:22.011Z,90.20
2018-12-18T02:23:52.293Z,90.30
2018-12-18T02:26:22.640Z,90.30
2018-12-18T02:28:53.989Z,90.40
2018-12-18T02:31:24.545Z,90.50
2018-12-18T02:33:54.865Z,90.60
2018-12-18T02:36:25.742Z,90.50
2018-12-18T02:38:56.025Z,90.50
2018-12-18T02:41:26.182Z,90.60
2018-12-18T02:43:56.591Z,90.70
2018-12-18T02:46:26.766Z,90.90
2018-12-18T02:48:57.026Z,90.90
2018-12-18T02:51:27.278Z,90.90
2018-12-18T02:53:57.676Z,90.90
2018-12-18T02:56:27.999Z,90.80
2018-12-18T02:58:58.219Z,90.70
2018-12-18T03:01:28.392Z,90.70
2018-12-18T03:03:58.610Z,90.60
2018-12-18T03:06:31.055Z,90.30
2018-12-18T03:09:01.252Z,90.20
2018-12-18T03:11:31.468Z,90.20
2018-12-18T03:14:02.145Z,90.20
2018-12-18T03:16:32.326Z,90.20
2018-12-18T03:19:02.570Z,90.40
2018-12-18T03:21:32.790Z,90.60
2018-12-18T03:24:03.191Z,90.50
2018-12-18T03:26:33.332Z,90.60
2018-12-18T03:29:03.944Z,90.70
2018-12-18T03:34:18.404Z,90.90
2018-12-18T03:36:49.280Z,91.20
2018-12-18T03:39:19.869Z,91.30
2018-12-18T03:41:50.319Z,91.30
2018-12-18T03:44:24.361Z,91.40
2018-12-18T03:46:55.093Z,91.50
2018-12-18T03:49:25.626Z,91.50
2018-12-18T03:51:56.141Z,91.60
2018-12-18T03:54:26.770Z,91.80
2018-12-18T03:56:57.262Z,91.80
2018-12-18T03:59:27.831Z,91.80
2018-12-18T04:18:33.545Z,92.10
2018-12-18T04:21:04.110Z,91.80
2018-12-18T04:23:34.437Z,92.10
2018-12-18T04:26:05.204Z,92.40
2018-12-18T04:28:35.731Z,92.50
2018-12-18T04:31:06.324Z,92.50
2018-12-18T04:33:37.174Z,92.40
2018-12-18T04:36:07.477Z,92.60
2018-12-18T04:38:37.812Z,92.60
2018-12-18T04:41:08.159Z,92.90
2018-12-18T04:43:38.861Z,92.80
2018-12-18T04:46:09.306Z,92.80
2018-12-18T04:48:39.925Z,92.90
2018-12-18T04:51:10.331Z,93.00
2018-12-18T04:53:40.672Z,93.00
2018-12-18T04:56:10.991Z,92.90
2018-12-18T04:58:41.530Z,93.30
2018-12-18T05:01:11.962Z,93.40
2018-12-18T05:03:42.298Z,93.50
2018-12-18T05:06:12.613Z,93.60
2018-12-18T05:08:42.943Z,93.60
2018-12-18T05:11:13.785Z,93.60
2018-12-18T05:13:44.494Z,93.60
2018-12-18T05:16:14.819Z,93.60
2018-12-18T05:18:45.693Z,93.60
2018-12-18T05:21:16.281Z,93.70
2018-12-18T05:23:47.015Z,93.70
2018-12-18T05:26:17.346Z,93.60
2018-12-18T05:28:47.683Z,93.60
2018-12-18T05:31:18.085Z,93.50
2018-12-18T05:33:48.615Z,93.50
2018-12-18T05:36:19.102Z,93.50
2018-12-18T05:38:49.686Z,93.50
2018-12-18T05:41:20.521Z,93.60
2018-12-18T05:43:51.291Z,93.50
2018-12-18T05:46:22.107Z,93.60
2018-12-18T05:48:52.944Z,93.50
2018-12-18T05:51:23.718Z,93.60
2018-12-18T05:53:54.595Z,93.60
2018-12-18T05:56:25.237Z,93.60
2018-12-18T05:58:56.101Z,93.60
2018-12-18T06:01:26.911Z,93.50
2018-12-18T06:03:59.131Z,93.80
2018-12-18T06:06:29.955Z,93.50
2018-12-18T06:09:01.094Z,93.50
2018-12-18T06:11:31.581Z,93.40
2018-12-18T06:14:02.493Z,93.40
2018-12-18T06:16:34.969Z,93.40
2018-12-18T06:19:06.278Z,93.40
2018-12-18T06:21:37.147Z,93.30
2018-12-18T06:24:08.253Z,93.10
2018-12-18T06:26:39.574Z,93.30
2018-12-18T06:29:11.110Z,93.40
2018-12-18T06:31:41.650Z,93.40
2018-12-18T06:34:12.735Z,93.50
2018-12-18T06:36:44.567Z,93.50
2018-12-18T06:39:15.666Z,93.70
2018-12-18T06:41:47.072Z,93.90
2018-12-18T06:44:18.410Z,94.00
2018-12-18T06:46:51.298Z,94.00
2018-12-18T06:49:22.522Z,94.00
2018-12-18T06:51:53.027Z,94.00
2018-12-18T06:54:24.124Z,94.10
2018-12-18T06:56:54.730Z,94.10
2018-12-18T06:59:25.220Z,94.10
2018-12-18T07:01:57.659Z,94.20
2018-12-18T07:04:28.576Z,94.20
2018-12-18T07:06:59.637Z,94.30
2018-12-18T07:09:30.958Z,94.20
2018-12-18T07:12:02.013Z,94.10
2018-12-18T07:14:32.968Z,94.20
2018-12-18T07:17:03.515Z,94.10
2018-12-18T07:19:33.918Z,94.10
2018-12-18T07:22:04.374Z,93.90
2018-12-18T07:24:34.799Z,93.90
2018-12-18T07:27:05.353Z,93.90
2018-12-18T07:29:38.229Z,93.60
2018-12-18T07:32:10.166Z,93.60
2018-12-18T07:34:40.623Z,93.60
2018-12-18T07:37:11.200Z,93.50
2018-12-18T07:39:41.740Z,93.50
2018-12-18T07:42:12.009Z,93.50
2018-12-18T07:44:42.466Z,93.50
2018-12-18T07:47:12.813Z,93.50
2018-12-18T07:49:43.570Z,93.40
2018-12-18T07:52:14.008Z,93.40
2018-12-18T07:54:44.587Z,93.30
2018-12-18T07:57:14.986Z,93.40
2018-12-18T07:59:45.727Z,93.50
2018-12-18T08:02:16.123Z,93.50
2018-12-18T08:04:46.742Z,93.50
2018-12-18T08:07:17.151Z,93.50
2018-12-18T08:09:47.550Z,93.50
2018-12-18T08:15:10.148Z,93.60
2018-12-18T08:17:40.570Z,93.40
2018-12-18T08:20:11.125Z,93.30
2018-12-18T08:22:41.697Z,93.30
2018-12-18T08:25:12.081Z,93.10
2018-12-18T08:27:42.563Z,93.10
2018-12-18T08:30:17.072Z,92.90
2018-12-18T08:32:47.831Z,92.80
2018-12-18T08:35:18.230Z,92.70
2018-12-18T08:37:48.895Z,92.50
2018-12-18T08:40:19.430Z,92.60
2018-12-18T08:42:49.864Z,92.60
2018-12-18T08:45:20.288Z,92.90
2018-12-18T08:47:50.904Z,92.50
2018-12-18T08:50:21.401Z,92.50
2018-12-18T08:52:51.795Z,92.40
2018-12-18T08:55:22.357Z,92.50
2018-12-18T08:57:52.865Z,92.50
2018-12-18T09:00:23.339Z,92.50
2018-12-18T09:02:53.904Z,92.50
2018-12-18T09:05:24.484Z,92.40
2018-12-18T09:07:54.841Z,92.30
2018-12-18T09:10:25.417Z,92.40
2018-12-18T09:12:55.696Z,92.30
2018-12-18T09:15:31.613Z,92.20
2018-12-18T09:18:01.913Z,92.20
2018-12-18T09:20:32.289Z,92.30
2018-12-18T09:23:03.053Z,92.30
2018-12-18T09:25:33.510Z,92.20
2018-12-18T09:28:04.063Z,92.00
2018-12-18T09:30:35.630Z,91.80
2018-12-18T09:33:06.733Z,91.90
2018-12-18T09:35:37.279Z,91.90
2018-12-18T09:38:13.333Z,91.90
2018-12-18T09:40:49.163Z,91.60
2018-12-18T09:43:25.272Z,91.50
2018-12-18T09:45:55.888Z,91.50
2018-12-18T09:48:26.494Z,91.50
2018-12-18T09:50:56.974Z,91.40
2018-12-18T09:53:27.599Z,91.30
2018-12-18T09:55:58.151Z,91.10
2018-12-18T09:58:28.577Z,90.80
2018-12-18T10:00:59.337Z,90.50
2018-12-18T10:03:33.557Z,90.20
2018-12-18T10:06:02.466Z,89.80
2018-12-18T10:08:32.798Z,89.00
2018-12-18T10:11:03.785Z,88.70
2018-12-18T10:13:34.361Z,88.20
2018-12-18T10:16:04.806Z,87.70
2018-12-18T10:18:35.130Z,87.10
2018-12-18T10:21:05.461Z,86.80
2018-12-18T10:23:36.010Z,86.30
2018-12-18T10:26:06.543Z,86.40
2018-12-18T10:28:37.004Z,87.00
2018-12-18T10:31:07.298Z,85.60
2018-12-18T10:33:37.682Z,85.60
2018-12-18T10:36:08.081Z,85.40
2018-12-18T10:38:38.888Z,83.50
2018-12-18T10:41:09.478Z,83.10
2018-12-18T10:43:39.917Z,82.40
2018-12-18T10:46:10.379Z,82.20
2018-12-18T10:48:41.086Z,81.40
2018-12-18T10:51:11.830Z,81.20
2018-12-18T10:53:42.637Z,81.20
2018-12-18T10:56:13.278Z,81.30
2018-12-18T10:58:54.659Z,82.20
2018-12-18T11:01:30.970Z,81.40
2018-12-18T11:04:01.489Z,80.90
2018-12-18T11:06:32.194Z,80.10
2018-12-18T11:09:05.551Z,79.20
2018-12-18T11:11:36.193Z,78.80
2018-12-18T11:14:07.274Z,77.30
2018-12-18T11:16:38.126Z,76.00
2018-12-18T11:19:08.668Z,75.60
2018-12-18T11:21:39.333Z,75.70
2018-12-18T11:24:10.084Z,75.90
2018-12-18T11:26:40.641Z,75.70
2018-12-18T11:29:11.344Z,75.20
2018-12-18T11:31:41.681Z,75.20
2018-12-18T11:34:12.185Z,75.00
2018-12-18T11:36:43.263Z,75.00
2018-12-18T11:39:14.168Z,74.40
2018-12-18T11:41:44.760Z,74.20
2018-12-18T11:44:15.219Z,74.50
2018-12-18T11:46:45.789Z,73.60
2018-12-18T11:49:16.444Z,73.30
2018-12-18T11:51:46.933Z,72.90
2018-12-18T11:54:17.476Z,73.20
2018-12-18T11:56:48.050Z,72.90
2018-12-18T11:59:18.477Z,72.80
2018-12-18T12:01:49.119Z,72.80
2018-12-18T12:04:19.589Z,71.30
2018-12-18T12:06:50.089Z,70.40
2018-12-18T12:09:20.955Z,70.00
2018-12-18T12:11:52.294Z,70.10
2018-12-18T12:14:23.355Z,69.20
2018-12-18T12:16:53.945Z,69.00
2018-12-18T12:19:24.349Z,68.80
2018-12-18T12:21:55.221Z,68.40
2018-12-18T12:24:25.815Z,67.80
2018-12-18T12:29:02.525Z,68.10
2018-12-18T12:31:32.976Z,67.90
2018-12-18T12:34:03.352Z,65.90
2018-12-18T12:36:34.964Z,65.50
2018-12-18T12:39:08.811Z,65.50
2018-12-18T12:41:39.261Z,66.00
2018-12-18T12:44:14.644Z,65.00
2018-12-18T12:46:45.777Z,64.80
2018-12-18T12:49:16.621Z,64.80
2018-12-18T12:51:47.186Z,64.50
2018-12-18T12:54:17.649Z,64.20
2018-12-18T12:56:48.148Z,63.30
2018-12-18T12:59:18.673Z,63.30
2018-12-18T13:01:49.933Z,62.70
2018-12-18T13:04:20.965Z,62.00
2018-12-18T13:06:51.584Z,61.30
2018-12-18T13:09:22.207Z,62.10
2018-12-18T13:11:52.653Z,61.20
2018-12-18T13:14:23.214Z,61.20
2018-12-18T13:16:53.526Z,61.00
2018-12-18T13:19:23.887Z,60.80
2018-12-18T13:21:54.204Z,60.40
2018-12-18T13:24:24.836Z,59.60
2018-12-18T13:26:55.311Z,59.80
2018-12-18T13:29:25.861Z,59.60
2018-12-18T13:31:56.551Z,58.80
2018-12-18T13:34:26.984Z,59.00
2018-12-18T13:36:57.570Z,58.80
2018-12-18T13:39:28.225Z,58.80
2018-12-18T13:41:58.787Z,59.00
2018-12-18T13:44:29.247Z,58.80
2018-12-18T13:46:59.605Z,58.90
2018-12-18T13:49:30.019Z,58.70
2018-12-18T13:52:03.600Z,58.70
2018-12-18T13:54:37.033Z,58.60
2018-12-18T13:57:09.044Z,58.70
2018-12-18T13:59:39.764Z,59.00
2018-12-18T14:02:10.697Z,59.10
2018-12-18T14:04:41.116Z,59.00
2018-12-18T14:07:11.528Z,59.20
2018-12-18T14:09:42.042Z,59.00
2018-12-18T14:12:12.524Z,58.90
2018-12-18T14:14:42.797Z,58.80
2018-12-18T14:17:13.735Z,58.80
2018-12-18T14:19:44.160Z,59.50
2018-12-18T14:22:15.360Z,59.20
2018-12-18T14:24:45.901Z,58.80
2018-12-18T14:27:18.573Z,59.00
2018-12-18T14:29:48.906Z,58.50
2018-12-18T14:32:19.385Z,58.30
2018-12-18T14:34:49.883Z,58.00
2018-12-18T14:37:20.258Z,57.90
2018-12-18T14:39:50.670Z,58.30
2018-12-18T14:42:21.095Z,58.90
2018-12-18T14:44:51.999Z,59.50
2018-12-18T14:47:22.630Z,59.30
2018-12-18T14:49:53.299Z,59.60
2018-12-18T14:52:23.699Z,59.10
2018-12-18T14:54:54.426Z,59.40
2018-12-18T14:57:25.111Z,59.60
2018-12-18T14:59:56.299Z,59.70
2018-12-18T15:02:27.036Z,59.80
2018-12-18T15:04:57.854Z,60.00
2018-12-18T15:07:28.640Z,60.90
2018-12-18T15:09:59.243Z,60.90
2018-12-18T15:12:29.817Z,60.90
2018-12-18T15:15:00.239Z,61.50
2018-12-18T15:17:30.863Z,60.90
2018-12-18T15:20:01.609Z,61.50
2018-12-18T15:22:32.102Z,61.80
2018-12-18T15:25:02.835Z,62.40
2018-12-18T15:27:33.649Z,62.40
2018-12-18T15:30:05.716Z,63.10
2018-12-18T15:32:36.455Z,64.90
2018-12-18T15:35:06.902Z,65.50
2018-12-18T15:37:37.949Z,67.00
2018-12-18T15:40:11.113Z,68.00
2018-12-18T15:42:41.963Z,68.80
2018-12-18T15:45:12.390Z,69.50
2018-12-18T15:47:43.992Z,69.40
2018-12-18T15:50:14.377Z,70.30
2018-12-18T15:52:44.856Z,71.00
2018-12-18T15:55:15.256Z,71.10
2018-12-18T15:57:48.615Z,71.50
2018-12-18T16:00:19.280Z,72.20
2018-12-18T16:02:49.566Z,72.80
2018-12-18T16:05:20.436Z,73.60
2018-12-18T16:07:51.141Z,73.70
2018-12-18T16:10:21.826Z,74.40
2018-12-18T16:12:52.123Z,74.60
2018-12-18T16:15:23.924Z,75.00
2018-12-18T16:17:54.578Z,75.30
2018-12-18T16:20:25.140Z,75.50
2018-12-18T16:22:55.773Z,75.50
2018-12-18T16:25:26.304Z,75.90
2018-12-18T16:27:57.046Z,76.30
2018-12-18T16:30:27.834Z,77.10
2018-12-18T16:32:58.713Z,77.80
2018-12-18T16:35:29.317Z,77.70
2018-12-18T16:37:59.694Z,77.70
2018-12-18T16:40:30.586Z,77.90
2018-12-18T16:43:01.059Z,77.50
2018-12-18T16:45:31.483Z,77.40
2018-12-18T16:48:01.812Z,78.00
2018-12-18T16:50:32.126Z,78.30
2018-12-18T16:53:02.524Z,78.20
2018-12-18T16:55:32.879Z,78.20
2018-12-18T16:58:03.327Z,77.90
2018-12-18T17:00:35.271Z,77.70
2018-12-18T17:03:05.735Z,77.50
2018-12-18T17:05:36.451Z,78.30
2018-12-18T17:08:07.270Z,79.20
2018-12-18T17:10:37.742Z,79.30
2018-12-18T17:13:08.621Z,79.10
2018-12-18T17:15:39.697Z,79.30
2018-12-18T17:18:10.162Z,79.70
2018-12-18T17:20:40.698Z,80.10
2018-12-18T17:23:11.112Z,80.10
2018-12-18T17:25:41.740Z,80.50
2018-12-18T17:28:12.534Z,80.20
2018-12-18T17:30:43.510Z,78.40
2018-12-18T17:33:14.200Z,77.40
2018-12-18T17:35:44.942Z,77.20
2018-12-18T17:38:15.777Z,77.10
2018-12-18T17:40:46.923Z,78.10
2018-12-18T17:43:18.616Z,79.70
2018-12-18T17:45:49.204Z,78.70
2018-12-18T17:48:20.121Z,78.40
2018-12-18T17:50:50.448Z,76.90
2018-12-18T17:53:21.221Z,76.90
2018-12-18T17:55:51.701Z,76.90
2018-12-18T18:14:21.332Z,76.80
2018-12-18T18:16:52.272Z,76.80
2018-12-18T18:19:22.940Z,77.40
2018-12-18T18:21:54.255Z,77.50
2018-12-18T18:24:30.493Z,77.50
2018-12-18T18:27:03.157Z,77.50
2018-12-18T18:29:34.174Z,77.90
2018-12-18T18:32:04.869Z,78.00
2018-12-18T18:34:35.562Z,78.00
2018-12-18T18:37:06.502Z,78.80
2018-12-18T18:39:37.182Z,79.30
2018-12-18T18:42:08.115Z,79.80
2018-12-18T18:44:39.603Z,79.70
2018-12-18T18:47:10.625Z,79.70
2018-12-18T18:49:41.421Z,80.10
2018-12-18T18:52:17.934Z,80.20
2018-12-18T18:54:50.529Z,79.80
2018-12-18T18:57:22.928Z,80.20
2018-12-18T18:59:55.019Z,80.00
2018-12-18T19:02:26.909Z,80.00
2018-12-18T19:04:58.637Z,80.70
2018-12-18T19:07:30.827Z,80.50
2018-12-18T19:10:02.499Z,80.30
2018-12-18T19:12:33.409Z,80.70
2018-12-18T19:15:04.874Z,80.70
2018-12-18T19:20:46.313Z,81.10
2018-12-18T19:23:21.594Z,80.70
2018-12-18T19:25:52.441Z,81.10
2018-12-18T19:28:23.479Z,80.70
2018-12-18T19:30:54.811Z,81.30
2018-12-18T19:33:25.553Z,81.20
2018-12-18T19:36:12.624Z,81.40
2018-12-18T19:39:09.499Z,81.00
2018-12-18T19:44:59.178Z,82.40
2018-12-18T19:47:44.119Z,83.10
2018-12-18T19:50:17.030Z,83.90
2018-12-18T19:53:05.114Z,83.70
2018-12-18T19:55:36.653Z,83.40
2018-12-18T19:58:08.968Z,83.50
2018-12-18T20:00:40.520Z,83.80
2018-12-18T20:03:22.857Z,84.50
2018-12-18T20:05:54.396Z,83.90
2018-12-18T20:08:25.976Z,83.90
2018-12-18T20:10:58.735Z,84.10
2018-12-18T21:32:36.695Z,84.60
2018-12-18T21:35:08.568Z,84.70
2018-12-18T21:37:39.612Z,84.70
2018-12-18T21:40:10.366Z,84.70
2018-12-18T21:42:41.371Z,84.70
2018-12-18T21:54:45.651Z,84.50
2018-12-18T21:57:23.384Z,84.50
2018-12-18T21:59:59.112Z,84.50
2018-12-18T22:02:35.520Z,85.00
2018-12-18T22:05:06.444Z,84.70
2018-12-18T22:07:36.849Z,84.80
2018-12-18T22:10:08.677Z,85.40
2018-12-18T22:12:41.367Z,85.10
2018-12-18T22:15:13.662Z,84.90
2018-12-18T22:17:44.134Z,85.10
2018-12-18T22:22:57.292Z,85.10
2018-12-18T22:28:41.199Z,85.40
2018-12-18T22:31:16.920Z,85.50
2018-12-18T22:36:59.413Z,85.70
2018-12-18T22:46:03.966Z,86.10
2018-12-18T22:48:34.648Z,85.90
2018-12-18T22:51:09.915Z,85.90
2018-12-18T22:53:40.821Z,86.00
2018-12-18T22:56:14.615Z,85.80
2018-12-18T22:58:45.531Z,85.90
2018-12-18T23:01:26.754Z,86.10
2018-12-18T23:03:57.453Z,86.60
2018-12-18T23:06:28.616Z,85.90
2018-12-18T23:09:01.500Z,86.00
2018-12-18T23:11:33.538Z,85.90
2018-12-18T23:14:04.637Z,85.90
2018-12-18T23:16:42.481Z,85.60
2018-12-18T23:19:14.569Z,85.10
2018-12-18T23:21:54.660Z,84.30
2018-12-18T23:24:35.975Z,84.60
2018-12-18T23:27:06.853Z,84.20
2018-12-18T23:29:55.980Z,84.20
2018-12-18T23:32:37.348Z,84.20
2018-12-18T23:35:14.272Z,82.70
2018-12-18T23:37:45.071Z,82.10
2018-12-18T23:40:20.646Z,82.20
2018-12-18T23:42:51.452Z,82.50
2018-12-18T23:48:25.184Z,82.80
2018-12-18T23:50:55.509Z,83.40
2018-12-18T23:53:25.929Z,81.00
2018-12-18T23:55:58.762Z,80.50
2018-12-18T23:58:29.173Z,81.50
